createdAt,value
2018-02-17T00:00:16.086Z,2.29
2018-02-17T00:00:20.418Z,2.29
2018-02-17T00:00:24.636Z,2.28
2018-02-17T00:00:28.540Z,2.28
2018-02-17T00:00:32.552Z,2.29
2018-02-17T00:00:36.776Z,2.29
2018-02-17T00:00:40.998Z,2.29
2018-02-17T00:00:45.012Z,2.29
2018-02-17T00:00:49.121Z,2.29
2018-02-17T00:00:52.910Z,2.28
2018-02-17T00:00:57.025Z,2.29
2018-02-17T00:01:01.133Z,2.29
2018-02-17T00:01:05.500Z,2.29
2018-02-17T00:01:09.514Z,2.3
2018-02-17T00:01:13.628Z,2.29
2018-02-17T00:01:17.846Z,2.29
2018-02-17T00:01:22.182Z,2.29
2018-02-17T00:01:26.192Z,2.29
2018-02-17T00:01:30.315Z,2.29
2018-02-17T00:01:34.530Z,2.29
2018-02-17T00:01:38.426Z,2.29
2018-02-17T00:01:42.433Z,2.29
2018-02-17T00:01:46.653Z,2.29
2018-02-17T00:01:50.883Z,2.3
2018-02-17T00:01:54.997Z,2.29
2018-02-17T00:01:59.114Z,2.29
2018-02-17T00:02:03.280Z,2.29
2018-02-17T00:02:07.401Z,2.3
2018-02-17T00:02:11.298Z,2.29
2018-02-17T00:02:15.636Z,2.3
2018-02-17T00:02:19.638Z,2.29
2018-02-17T00:02:23.856Z,2.29
2018-02-17T00:02:28.187Z,2.29
2018-02-17T00:02:32.408Z,2.3
2018-02-17T00:02:36.628Z,2.29
2018-02-17T00:02:40.745Z,2.28
2018-02-17T00:02:45.070Z,2.29
2018-02-17T00:02:49.405Z,2.29
2018-02-17T00:02:53.627Z,2.29
2018-02-17T00:02:57.745Z,2.29
2018-02-17T00:03:01.976Z,2.29
2018-02-17T00:03:05.993Z,2.29
2018-02-17T00:03:10.222Z,2.29
2018-02-17T00:03:14.325Z,2.29
2018-02-17T00:03:18.439Z,2.29
2018-02-17T00:03:22.437Z,2.29
2018-02-17T00:03:26.573Z,2.29
2018-02-17T00:03:30.582Z,2.28
2018-02-17T00:03:34.693Z,2.28
2018-02-17T00:03:38.702Z,2.29
2018-02-17T00:03:42.812Z,2.28
2018-02-17T00:03:46.923Z,2.28
2018-02-17T00:03:51.253Z,2.28
2018-02-17T00:03:55.473Z,2.29
2018-02-17T00:03:59.581Z,2.28
2018-02-17T00:04:03.699Z,2.28
2018-02-17T00:04:07.705Z,2.28
2018-02-17T00:04:11.824Z,2.28
2018-02-17T00:04:15.937Z,2.28
2018-02-17T00:04:19.941Z,2.28
2018-02-17T00:04:24.272Z,2.28
2018-02-17T00:04:28.385Z,2.27
2018-02-17T00:04:32.713Z,2.28
2018-02-17T00:04:36.944Z,2.28
2018-02-17T00:04:41.056Z,2.28
2018-02-17T00:04:45.274Z,2.28
2018-02-17T00:04:49.600Z,2.27
2018-02-17T00:04:53.826Z,2.27
2018-02-17T00:04:57.936Z,2.27
2018-02-17T00:05:02.057Z,2.28
2018-02-17T00:05:06.061Z,2.28
2018-02-17T00:05:10.284Z,2.27
2018-02-17T00:05:14.295Z,2.27
2018-02-17T00:05:18.512Z,2.27
2018-02-17T00:05:22.630Z,2.26
2018-02-17T00:05:26.853Z,2.27
2018-02-17T00:05:30.864Z,2.27
2018-02-17T00:05:35.098Z,2.26
2018-02-17T00:05:39.004Z,2.25
2018-02-17T00:05:43.013Z,2.26
2018-02-17T00:05:47.019Z,2.26
2018-02-17T00:05:51.348Z,2.26
2018-02-17T00:05:55.459Z,2.26
2018-02-17T00:05:59.791Z,2.25
2018-02-17T00:06:03.955Z,2.25
2018-02-17T00:06:08.073Z,2.25
2018-02-17T00:06:12.293Z,2.25
2018-02-17T00:06:16.518Z,2.25
2018-02-17T00:06:20.630Z,2.24
2018-02-17T00:06:24.747Z,2.25
2018-02-17T00:06:28.969Z,2.24
2018-02-17T00:06:33.290Z,2.23
2018-02-17T00:06:37.631Z,2.24
2018-02-17T00:06:41.748Z,2.23
2018-02-17T00:06:46.079Z,2.23
2018-02-17T00:06:50.205Z,2.23
2018-02-17T00:06:54.429Z,2.22
2018-02-17T00:06:58.659Z,2.23
2018-02-17T00:07:02.917Z,2.22
2018-02-17T00:07:07.031Z,2.22
2018-02-17T00:07:11.146Z,2.22
2018-02-17T00:07:15.262Z,2.23
2018-02-17T00:07:19.495Z,2.21
2018-02-17T00:07:23.502Z,2.21
2018-02-17T00:07:27.620Z,2.22
2018-02-17T00:07:31.738Z,2.21
2018-02-17T00:07:35.967Z,2.21
2018-02-17T00:07:39.872Z,2.21
2018-02-17T00:07:44.207Z,2.21
2018-02-17T00:07:48.320Z,2.21
2018-02-17T00:07:52.442Z,2.21
2018-02-17T00:07:56.661Z,2.2
2018-02-17T00:08:00.669Z,2.21
2018-02-17T00:08:04.894Z,2.2
2018-02-17T00:08:09.114Z,2.2
2018-02-17T00:08:13.118Z,2.2
2018-02-17T00:08:17.228Z,2.2
2018-02-17T00:08:21.448Z,2.2
2018-02-17T00:08:25.675Z,2.19
2018-02-17T00:08:29.900Z,2.2
2018-02-17T00:08:33.902Z,2.2
2018-02-17T00:08:37.909Z,2.18
2018-02-17T00:08:41.921Z,2.19
2018-02-17T00:08:46.041Z,2.18
2018-02-17T00:08:49.937Z,2.2
2018-02-17T00:08:54.191Z,2.18
2018-02-17T00:08:58.416Z,2.19
2018-02-17T00:09:02.588Z,2.19
2018-02-17T00:09:06.812Z,2.19
2018-02-17T00:09:11.035Z,2.19
2018-02-17T00:09:15.251Z,2.18
2018-02-17T00:09:19.485Z,2.18
2018-02-17T00:09:23.595Z,2.18
2018-02-17T00:09:27.709Z,2.19
2018-02-17T00:09:31.933Z,2.18
2018-02-17T00:09:36.052Z,2.19
2018-02-17T00:09:40.177Z,2.18
2018-02-17T00:09:44.285Z,2.18
2018-02-17T00:09:48.515Z,2.18
2018-02-17T00:09:52.740Z,2.17
2018-02-17T00:09:56.962Z,2.17
2018-02-17T00:10:00.975Z,2.17
2018-02-17T00:10:05.020Z,2.17
2018-02-17T00:10:09.036Z,2.17
2018-02-17T00:10:13.157Z,2.17
2018-02-17T00:10:17.379Z,2.16
2018-02-17T00:10:21.281Z,2.17
2018-02-17T00:10:25.392Z,2.16
2018-02-17T00:10:29.395Z,2.17
2018-02-17T00:10:33.523Z,2.17
2018-02-17T00:10:37.743Z,2.16
2018-02-17T00:10:41.968Z,2.16
2018-02-17T00:10:45.868Z,2.16
2018-02-17T00:10:50.088Z,2.16
2018-02-17T00:10:54.100Z,2.16
2018-02-17T00:10:58.104Z,2.16
2018-02-17T00:11:02.120Z,2.16
2018-02-17T00:11:06.236Z,2.15
2018-02-17T00:11:10.356Z,2.16
2018-02-17T00:11:14.468Z,2.16
2018-02-17T00:11:18.475Z,2.16
2018-02-17T00:11:22.806Z,2.16
2018-02-17T00:11:26.918Z,2.15
2018-02-17T00:11:31.036Z,2.15
2018-02-17T00:11:35.367Z,2.14
2018-02-17T00:11:39.594Z,2.16
2018-02-17T00:11:43.705Z,2.15
2018-02-17T00:11:47.928Z,2.16
2018-02-17T00:11:52.247Z,2.15
2018-02-17T00:11:56.576Z,2.15
2018-02-17T00:12:00.689Z,2.15
2018-02-17T00:12:04.699Z,2.15
2018-02-17T00:12:08.923Z,2.14
2018-02-17T00:12:13.040Z,2.14
2018-02-17T00:12:17.273Z,2.15
2018-02-17T00:12:21.386Z,2.14
2018-02-17T00:12:25.507Z,2.15
2018-02-17T00:12:29.766Z,2.15
2018-02-17T00:12:33.987Z,2.15
2018-02-17T00:12:38.326Z,2.14
2018-02-17T00:12:42.445Z,2.15
2018-02-17T00:12:46.774Z,2.15
2018-02-17T00:12:50.884Z,2.14
2018-02-17T00:12:54.888Z,2.15
2018-02-17T00:12:59.219Z,2.14
2018-02-17T00:13:03.444Z,2.14
2018-02-17T00:13:07.781Z,2.14
2018-02-17T00:13:11.790Z,2.14
2018-02-17T00:13:15.907Z,2.15
2018-02-17T00:13:20.030Z,2.14
2018-02-17T00:13:24.148Z,2.14
2018-02-17T00:13:28.477Z,2.14
2018-02-17T00:13:32.595Z,2.14
2018-02-17T00:13:36.834Z,2.14
2018-02-17T00:13:41.217Z,2.14
2018-02-17T00:13:45.548Z,2.13
2018-02-17T00:13:49.769Z,2.13
2018-02-17T00:13:53.890Z,2.14
2018-02-17T00:13:58.117Z,2.14
2018-02-17T00:14:02.282Z,2.14
2018-02-17T00:14:06.511Z,2.14
2018-02-17T00:14:10.417Z,2.14
2018-02-17T00:14:14.637Z,2.13
2018-02-17T00:14:18.976Z,2.13
2018-02-17T00:14:23.093Z,2.13
2018-02-17T00:14:27.098Z,2.14
2018-02-17T00:14:31.321Z,2.14
2018-02-17T00:14:35.555Z,2.14
2018-02-17T00:14:39.776Z,2.14
2018-02-17T00:14:44.116Z,2.14
2018-02-17T00:14:48.456Z,2.14
2018-02-17T00:14:52.678Z,2.14
2018-02-17T00:14:56.690Z,2.14
2018-02-17T00:15:00.922Z,2.13
2018-02-17T00:15:05.088Z,2.14
2018-02-17T00:15:09.313Z,2.14
2018-02-17T00:15:13.536Z,2.14
2018-02-17T00:15:17.869Z,2.14
2018-02-17T00:15:21.984Z,2.13
2018-02-17T00:15:26.313Z,2.13
2018-02-17T00:15:30.427Z,2.13
2018-02-17T00:15:34.759Z,2.13
2018-02-17T00:15:38.975Z,2.13
2018-02-17T00:15:42.767Z,2.13
2018-02-17T00:15:46.991Z,2.14
2018-02-17T00:15:50.888Z,2.13
2018-02-17T00:15:55.003Z,2.13
2018-02-17T00:15:59.138Z,2.14
2018-02-17T00:16:03.300Z,2.13
2018-02-17T00:16:07.310Z,2.13
2018-02-17T00:16:11.530Z,2.12
2018-02-17T00:16:15.865Z,2.12
2018-02-17T00:16:20.095Z,2.11
2018-02-17T00:16:24.206Z,2.11
2018-02-17T00:16:28.209Z,2.11
2018-02-17T00:16:32.544Z,2.11
2018-02-17T00:16:36.660Z,2.1
2018-02-17T00:16:40.773Z,2.1
2018-02-17T00:16:44.904Z,2.1
2018-02-17T00:16:49.134Z,2.1
2018-02-17T00:16:53.348Z,2.09
2018-02-17T00:16:57.463Z,2.08
2018-02-17T00:17:01.679Z,2.09
2018-02-17T00:17:05.796Z,2.08
2018-02-17T00:17:09.911Z,2.08
2018-02-17T00:17:14.239Z,2.08
2018-02-17T00:17:18.259Z,2.07
2018-02-17T00:17:22.592Z,2.08
2018-02-17T00:17:26.709Z,2.07
2018-02-17T00:17:30.953Z,2.07
2018-02-17T00:17:35.281Z,2.05
2018-02-17T00:17:39.613Z,2.06
2018-02-17T00:17:43.721Z,2.05
2018-02-17T00:17:47.944Z,2.06
2018-02-17T00:17:52.062Z,2.05
2018-02-17T00:17:56.394Z,2.04
2018-02-17T00:18:00.506Z,2.04
2018-02-17T00:18:04.625Z,2.04
2018-02-17T00:18:08.566Z,2.05
2018-02-17T00:18:12.748Z,2.04
2018-02-17T00:18:16.860Z,2.04
2018-02-17T00:18:21.082Z,2.04
2018-02-17T00:18:25.202Z,2.04
2018-02-17T00:18:29.429Z,2.02
2018-02-17T00:18:33.776Z,2.03
2018-02-17T00:18:37.898Z,2.03
2018-02-17T00:18:42.008Z,2.03
2018-02-17T00:18:46.028Z,2.02
2018-02-17T00:18:50.250Z,2.02
2018-02-17T00:18:54.361Z,2.01
2018-02-17T00:18:58.585Z,2.01
2018-02-17T00:19:02.601Z,2
2018-02-17T00:19:06.723Z,2
2018-02-17T00:19:10.842Z,2
2018-02-17T00:19:15.077Z,1.99
2018-02-17T00:19:19.194Z,1.99
2018-02-17T00:19:23.529Z,2
2018-02-17T00:19:27.649Z,1.99
2018-02-17T00:19:31.981Z,1.99
2018-02-17T00:19:36.200Z,1.98
2018-02-17T00:19:40.422Z,1.98
2018-02-17T00:19:44.655Z,1.98
2018-02-17T00:19:48.975Z,1.98
2018-02-17T00:19:53.315Z,1.97
2018-02-17T00:19:57.640Z,1.95
2018-02-17T00:20:01.756Z,1.96
2018-02-17T00:20:06.089Z,1.95
2018-02-17T00:20:10.310Z,1.96
2018-02-17T00:20:14.211Z,1.96
2018-02-17T00:20:18.342Z,1.96
2018-02-17T00:20:22.673Z,1.95
2018-02-17T00:20:26.905Z,1.94
2018-02-17T00:20:31.127Z,1.94
2018-02-17T00:20:35.464Z,1.92
2018-02-17T00:20:39.797Z,1.93
2018-02-17T00:20:43.800Z,1.92
2018-02-17T00:20:48.016Z,1.92
2018-02-17T00:20:52.354Z,1.91
2018-02-17T00:20:56.570Z,1.92
2018-02-17T00:21:00.917Z,1.91
2018-02-17T00:21:05.388Z,1.91
2018-02-17T00:21:09.503Z,1.91
2018-02-17T00:21:13.734Z,1.9
2018-02-17T00:21:17.737Z,1.9
2018-02-17T00:21:21.960Z,1.9
2018-02-17T00:21:26.076Z,1.9
2018-02-17T00:21:30.085Z,1.89
2018-02-17T00:21:34.316Z,1.89
2018-02-17T00:21:38.448Z,1.89
2018-02-17T00:21:42.563Z,1.9
2018-02-17T00:21:46.788Z,1.88
2018-02-17T00:21:51.126Z,1.88
2018-02-17T00:21:55.458Z,1.88
2018-02-17T00:21:59.572Z,1.88
2018-02-17T00:22:03.995Z,1.88
2018-02-17T00:22:08.004Z,1.87
2018-02-17T00:22:12.337Z,1.87
2018-02-17T00:22:16.565Z,1.88
2018-02-17T00:22:20.692Z,1.87
2018-02-17T00:22:24.705Z,1.87
2018-02-17T00:22:28.938Z,1.87
2018-02-17T00:22:33.168Z,1.86
2018-02-17T00:22:37.172Z,1.87
2018-02-17T00:22:41.443Z,1.87
2018-02-17T00:22:45.451Z,1.86
2018-02-17T00:22:49.780Z,1.86
2018-02-17T00:22:54.112Z,1.87
2018-02-17T00:22:58.224Z,1.86
2018-02-17T00:23:02.386Z,1.85
2018-02-17T00:23:06.498Z,1.85
2018-02-17T00:23:10.719Z,1.85
2018-02-17T00:23:14.963Z,1.85
2018-02-17T00:23:19.076Z,1.85
2018-02-17T00:23:23.299Z,1.84
2018-02-17T00:23:27.408Z,1.84
2018-02-17T00:23:31.205Z,1.84
2018-02-17T00:23:35.333Z,1.84
2018-02-17T00:23:39.344Z,1.84
2018-02-17T00:23:43.574Z,1.83
2018-02-17T00:23:47.688Z,1.83
2018-02-17T00:23:51.690Z,1.83
2018-02-17T00:23:55.906Z,1.83
2018-02-17T00:24:00.126Z,1.82
2018-02-17T00:24:04.176Z,1.82
2018-02-17T00:24:08.449Z,1.83
2018-02-17T00:24:12.563Z,1.82
2018-02-17T00:24:16.794Z,1.83
2018-02-17T00:24:21.015Z,1.82
2018-02-17T00:24:25.031Z,1.82
2018-02-17T00:24:29.152Z,1.82
2018-02-17T00:24:33.484Z,1.82
2018-02-17T00:24:37.497Z,1.82
2018-02-17T00:24:41.824Z,1.81
2018-02-17T00:24:46.048Z,1.81
2018-02-17T00:24:50.157Z,1.81
2018-02-17T00:24:54.051Z,1.81
2018-02-17T00:24:58.386Z,1.81
2018-02-17T00:25:02.660Z,1.8
2018-02-17T00:25:06.884Z,1.8
2018-02-17T00:25:10.890Z,1.8
2018-02-17T00:25:15.012Z,1.8
2018-02-17T00:25:19.239Z,1.79
2018-02-17T00:25:23.466Z,1.78
2018-02-17T00:25:27.799Z,1.79
2018-02-17T00:25:32.127Z,1.79
2018-02-17T00:25:36.251Z,1.79
2018-02-17T00:25:40.585Z,1.78
2018-02-17T00:25:44.706Z,1.78
2018-02-17T00:25:48.719Z,1.78
2018-02-17T00:25:52.947Z,1.78
2018-02-17T00:25:57.276Z,1.77
2018-02-17T00:26:01.504Z,1.78
2018-02-17T00:26:05.630Z,1.77
2018-02-17T00:26:09.739Z,1.77
2018-02-17T00:26:13.747Z,1.76
2018-02-17T00:26:17.971Z,1.77
2018-02-17T00:26:22.192Z,1.77
2018-02-17T00:26:26.416Z,1.76
2018-02-17T00:26:30.743Z,1.76
2018-02-17T00:26:34.756Z,1.76
2018-02-17T00:26:38.979Z,1.76
2018-02-17T00:26:43.203Z,1.76
2018-02-17T00:26:47.434Z,1.76
2018-02-17T00:26:51.546Z,1.76
2018-02-17T00:26:55.665Z,1.76
2018-02-17T00:26:59.887Z,1.76
2018-02-17T00:27:04.098Z,1.75
2018-02-17T00:27:08.208Z,1.76
2018-02-17T00:27:12.105Z,1.75
2018-02-17T00:27:16.217Z,1.75
2018-02-17T00:27:20.559Z,1.75
2018-02-17T00:27:24.775Z,1.75
2018-02-17T00:27:28.997Z,1.75
2018-02-17T00:27:33.222Z,1.76
2018-02-17T00:27:36.908Z,1.75
2018-02-17T00:27:41.031Z,1.75
2018-02-17T00:27:45.148Z,1.75
2018-02-17T00:27:49.471Z,1.75
2018-02-17T00:27:53.475Z,1.75
2018-02-17T00:27:57.807Z,1.74
2018-02-17T00:28:02.144Z,1.75
2018-02-17T00:28:06.264Z,1.75
2018-02-17T00:28:10.380Z,1.75
2018-02-17T00:28:14.611Z,1.74
2018-02-17T00:28:18.724Z,1.74
2018-02-17T00:28:23.103Z,1.74
2018-02-17T00:28:27.227Z,1.74
2018-02-17T00:28:31.341Z,1.73
2018-02-17T00:28:35.563Z,1.73
2018-02-17T00:28:39.886Z,1.73
2018-02-17T00:28:44.107Z,1.74
2018-02-17T00:28:48.338Z,1.73
2018-02-17T00:28:52.670Z,1.73
2018-02-17T00:28:56.896Z,1.74
2018-02-17T00:29:01.225Z,1.73
2018-02-17T00:29:05.344Z,1.73
2018-02-17T00:29:09.463Z,1.73
2018-02-17T00:29:13.578Z,1.74
2018-02-17T00:29:17.792Z,1.74
2018-02-17T00:29:21.917Z,1.73
2018-02-17T00:29:25.821Z,1.74
2018-02-17T00:29:29.831Z,1.73
2018-02-17T00:29:33.965Z,1.74
2018-02-17T00:29:37.968Z,1.73
2018-02-17T00:29:42.300Z,1.73
2018-02-17T00:29:46.414Z,1.74
2018-02-17T00:29:50.538Z,1.73
2018-02-17T00:29:54.756Z,1.74
2018-02-17T00:29:58.760Z,1.74
2018-02-17T00:30:02.933Z,1.74
2018-02-17T00:30:07.152Z,1.74
2018-02-17T00:30:11.263Z,1.74
2018-02-17T00:30:15.388Z,1.74
2018-02-17T00:30:19.607Z,1.75
2018-02-17T00:30:23.942Z,1.74
2018-02-17T00:30:28.055Z,1.75
2018-02-17T00:30:32.274Z,1.75
2018-02-17T00:30:36.613Z,1.76
2018-02-17T00:30:40.614Z,1.75
2018-02-17T00:30:44.730Z,1.75
2018-02-17T00:30:48.846Z,1.76
2018-02-17T00:30:53.076Z,1.76
2018-02-17T00:30:57.301Z,1.75
2018-02-17T00:31:01.410Z,1.76
2018-02-17T00:31:05.635Z,1.77
2018-02-17T00:31:09.858Z,1.77
2018-02-17T00:31:14.082Z,1.77
2018-02-17T00:31:18.228Z,1.77
2018-02-17T00:31:22.337Z,1.76
2018-02-17T00:31:26.667Z,1.77
2018-02-17T00:31:30.779Z,1.77
2018-02-17T00:31:35.097Z,1.78
2018-02-17T00:31:39.102Z,1.78
2018-02-17T00:31:43.216Z,1.78
2018-02-17T00:31:47.437Z,1.78
2018-02-17T00:31:51.664Z,1.79
2018-02-17T00:31:56.006Z,1.79
2018-02-17T00:32:00.236Z,1.79
2018-02-17T00:32:04.514Z,1.79
2018-02-17T00:32:08.742Z,1.8
2018-02-17T00:32:12.746Z,1.79
2018-02-17T00:32:16.865Z,1.79
2018-02-17T00:32:21.085Z,1.8
2018-02-17T00:32:25.306Z,1.81
2018-02-17T00:32:29.529Z,1.81
2018-02-17T00:32:33.431Z,1.8
2018-02-17T00:32:37.771Z,1.81
2018-02-17T00:32:42.000Z,1.81
2018-02-17T00:32:46.225Z,1.82
2018-02-17T00:32:50.231Z,1.81
2018-02-17T00:32:54.244Z,1.82
2018-02-17T00:32:58.356Z,1.82
2018-02-17T00:33:02.465Z,1.82
2018-02-17T00:33:06.475Z,1.81
2018-02-17T00:33:10.606Z,1.82
2018-02-17T00:33:14.615Z,1.82
2018-02-17T00:33:18.625Z,1.82
2018-02-17T00:33:22.645Z,1.82
2018-02-17T00:33:26.874Z,1.83
2018-02-17T00:33:30.992Z,1.83
2018-02-17T00:33:35.332Z,1.83
2018-02-17T00:33:39.556Z,1.83
2018-02-17T00:33:43.672Z,1.83
2018-02-17T00:33:47.780Z,1.84
2018-02-17T00:33:52.115Z,1.84
2018-02-17T00:33:56.442Z,1.85
2018-02-17T00:34:00.722Z,1.84
2018-02-17T00:34:04.729Z,1.84
2018-02-17T00:34:08.959Z,1.85
2018-02-17T00:34:13.185Z,1.84
2018-02-17T00:34:17.298Z,1.85
2018-02-17T00:34:21.623Z,1.85
2018-02-17T00:34:25.623Z,1.86
2018-02-17T00:34:29.845Z,1.85
2018-02-17T00:34:34.174Z,1.85
2018-02-17T00:34:38.394Z,1.86
2018-02-17T00:34:42.620Z,1.86
2018-02-17T00:34:46.948Z,1.87
2018-02-17T00:34:51.175Z,1.86
2018-02-17T00:34:55.311Z,1.86
2018-02-17T00:34:59.317Z,1.88
2018-02-17T00:35:03.437Z,1.86
2018-02-17T00:35:07.665Z,1.86
2018-02-17T00:35:11.667Z,1.87
2018-02-17T00:35:15.783Z,1.87
2018-02-17T00:35:19.787Z,1.87
2018-02-17T00:35:24.015Z,1.87
2018-02-17T00:35:28.345Z,1.87
2018-02-17T00:35:32.567Z,1.88
2018-02-17T00:35:36.787Z,1.87
2018-02-17T00:35:40.800Z,1.88
2018-02-17T00:35:44.807Z,1.88
2018-02-17T00:35:49.076Z,1.88
2018-02-17T00:35:53.304Z,1.87
2018-02-17T00:35:57.519Z,1.88
2018-02-17T00:36:01.638Z,1.88
2018-02-17T00:36:05.838Z,1.89
2018-02-17T00:36:10.061Z,1.88
2018-02-17T00:36:14.302Z,1.89
2018-02-17T00:36:18.650Z,1.88
2018-02-17T00:36:22.762Z,1.89
2018-02-17T00:36:26.764Z,1.88
2018-02-17T00:36:30.876Z,1.88
2018-02-17T00:36:35.208Z,1.89
2018-02-17T00:36:39.473Z,1.88
2018-02-17T00:36:43.600Z,1.88
2018-02-17T00:36:47.723Z,1.89
2018-02-17T00:36:51.941Z,1.89
2018-02-17T00:36:56.162Z,1.89
2018-02-17T00:37:00.059Z,1.89
2018-02-17T00:37:04.630Z,1.89
2018-02-17T00:37:08.858Z,1.89
2018-02-17T00:37:13.083Z,1.89
2018-02-17T00:37:17.311Z,1.89
2018-02-17T00:37:21.540Z,1.9
2018-02-17T00:37:25.658Z,1.89
2018-02-17T00:37:29.767Z,1.89
2018-02-17T00:37:33.990Z,1.89
2018-02-17T00:37:38.004Z,1.9
2018-02-17T00:37:42.221Z,1.89
2018-02-17T00:37:46.345Z,1.89
2018-02-17T00:37:50.347Z,1.9
2018-02-17T00:37:54.585Z,1.89
2018-02-17T00:37:58.912Z,1.89
2018-02-17T00:38:03.131Z,1.9
2018-02-17T00:38:07.411Z,1.89
2018-02-17T00:38:11.527Z,1.9
2018-02-17T00:38:15.645Z,1.9
2018-02-17T00:38:19.769Z,1.89
2018-02-17T00:38:23.782Z,1.9
2018-02-17T00:38:28.113Z,1.89
2018-02-17T00:38:32.329Z,1.9
2018-02-17T00:38:36.454Z,1.9
2018-02-17T00:38:40.680Z,1.9
2018-02-17T00:38:44.924Z,1.9
2018-02-17T00:38:49.010Z,1.91
2018-02-17T00:38:53.230Z,1.9
2018-02-17T00:38:57.561Z,1.9
2018-02-17T00:39:01.684Z,1.9
2018-02-17T00:39:05.909Z,1.91
2018-02-17T00:39:09.914Z,1.91
2018-02-17T00:39:14.131Z,1.91
2018-02-17T00:39:18.140Z,1.9
2018-02-17T00:39:22.370Z,1.9
2018-02-17T00:39:26.164Z,1.91
2018-02-17T00:39:30.278Z,1.91
2018-02-17T00:39:34.606Z,1.9
2018-02-17T00:39:38.875Z,1.9
2018-02-17T00:39:42.875Z,1.9
2018-02-17T00:39:47.108Z,1.9
2018-02-17T00:39:51.436Z,1.9
2018-02-17T00:39:55.652Z,1.9
2018-02-17T00:39:59.766Z,1.9
2018-02-17T00:40:03.883Z,1.9
2018-02-17T00:40:08.002Z,1.9
2018-02-17T00:40:12.223Z,1.9
2018-02-17T00:40:16.449Z,1.9
2018-02-17T00:40:20.816Z,1.9
2018-02-17T00:40:25.040Z,1.9
2018-02-17T00:40:29.238Z,1.9
2018-02-17T00:40:33.356Z,1.89
2018-02-17T00:40:37.260Z,1.9
2018-02-17T00:40:41.483Z,1.89
2018-02-17T00:40:45.809Z,1.89
2018-02-17T00:40:49.812Z,1.88
2018-02-17T00:40:53.817Z,1.88
2018-02-17T00:40:57.827Z,1.88
2018-02-17T00:41:01.946Z,1.89
2018-02-17T00:41:05.855Z,1.88
2018-02-17T00:41:10.074Z,1.88
2018-02-17T00:41:14.193Z,1.87
2018-02-17T00:41:18.192Z,1.87
2018-02-17T00:41:22.406Z,1.88
2018-02-17T00:41:26.623Z,1.88
2018-02-17T00:41:30.620Z,1.88
2018-02-17T00:41:34.639Z,1.88
2018-02-17T00:41:38.861Z,1.88
2018-02-17T00:41:43.088Z,1.88
2018-02-17T00:41:47.313Z,1.87
2018-02-17T00:41:51.433Z,1.88
2018-02-17T00:41:55.656Z,1.88
2018-02-17T00:41:59.883Z,1.87
2018-02-17T00:42:04.006Z,1.87
2018-02-17T00:42:08.126Z,1.87
2018-02-17T00:42:12.349Z,1.87
2018-02-17T00:42:16.476Z,1.86
2018-02-17T00:42:20.807Z,1.87
2018-02-17T00:42:25.129Z,1.88
2018-02-17T00:42:29.250Z,1.87
2018-02-17T00:42:33.366Z,1.87
2018-02-17T00:42:37.582Z,1.86
2018-02-17T00:42:41.908Z,1.86
2018-02-17T00:42:46.236Z,1.87
2018-02-17T00:42:50.238Z,1.86
2018-02-17T00:42:54.452Z,1.86
2018-02-17T00:42:58.674Z,1.86
2018-02-17T00:43:03.060Z,1.86
2018-02-17T00:43:07.173Z,1.87
2018-02-17T00:43:11.283Z,1.86
2018-02-17T00:43:15.393Z,1.86
2018-02-17T00:43:19.508Z,1.86
2018-02-17T00:43:23.730Z,1.85
2018-02-17T00:43:27.844Z,1.86
2018-02-17T00:43:31.953Z,1.86
2018-02-17T00:43:36.169Z,1.85
2018-02-17T00:43:40.502Z,1.85
2018-02-17T00:43:44.612Z,1.86
2018-02-17T00:43:48.613Z,1.85
2018-02-17T00:43:52.732Z,1.86
2018-02-17T00:43:57.073Z,1.85
2018-02-17T00:44:01.191Z,1.85
2018-02-17T00:44:05.204Z,1.86
2018-02-17T00:44:09.322Z,1.85
2018-02-17T00:44:13.432Z,1.85
2018-02-17T00:44:17.449Z,1.85
2018-02-17T00:44:21.572Z,1.85
2018-02-17T00:44:25.700Z,1.85
2018-02-17T00:44:29.809Z,1.85
2018-02-17T00:44:33.929Z,1.86
2018-02-17T00:44:38.249Z,1.85
2018-02-17T00:44:42.584Z,1.85
2018-02-17T00:44:46.705Z,1.85
2018-02-17T00:44:50.822Z,1.85
2018-02-17T00:44:54.955Z,1.86
2018-02-17T00:44:59.394Z,1.84
2018-02-17T00:45:03.545Z,1.85
2018-02-17T00:45:07.553Z,1.86
2018-02-17T00:45:11.665Z,1.86
2018-02-17T00:45:15.882Z,1.86
2018-02-17T00:45:19.997Z,1.85
2018-02-17T00:45:24.104Z,1.86
2018-02-17T00:45:28.321Z,1.86
2018-02-17T00:45:32.444Z,1.86
2018-02-17T00:45:36.563Z,1.86
2018-02-17T00:45:40.777Z,1.86
2018-02-17T00:45:44.776Z,1.86
2018-02-17T00:45:48.895Z,1.86
2018-02-17T00:45:53.121Z,1.87
2018-02-17T00:45:57.442Z,1.86
2018-02-17T00:46:01.554Z,1.86
2018-02-17T00:46:05.913Z,1.86
2018-02-17T00:46:10.141Z,1.87
2018-02-17T00:46:14.146Z,1.87
2018-02-17T00:46:18.154Z,1.87
2018-02-17T00:46:22.486Z,1.88
2018-02-17T00:46:26.718Z,1.87
2018-02-17T00:46:30.841Z,1.88
2018-02-17T00:46:34.956Z,1.88
2018-02-17T00:46:39.065Z,1.88
2018-02-17T00:46:43.295Z,1.88
2018-02-17T00:46:47.405Z,1.88
2018-02-17T00:46:51.519Z,1.88
2018-02-17T00:46:55.642Z,1.88
2018-02-17T00:46:59.653Z,1.89
2018-02-17T00:47:03.932Z,1.89
2018-02-17T00:47:08.352Z,1.88
2018-02-17T00:47:12.709Z,1.89
2018-02-17T00:47:16.930Z,1.89
2018-02-17T00:47:20.832Z,1.89
2018-02-17T00:47:24.945Z,1.89
2018-02-17T00:47:29.163Z,1.89
2018-02-17T00:47:33.390Z,1.89
2018-02-17T00:47:37.500Z,1.89
2018-02-17T00:47:41.730Z,1.89
2018-02-17T00:47:45.948Z,1.9
2018-02-17T00:47:50.234Z,1.9
2018-02-17T00:47:54.470Z,1.9
2018-02-17T00:47:58.478Z,1.9
2018-02-17T00:48:02.894Z,1.91
2018-02-17T00:48:07.113Z,1.91
2018-02-17T00:48:11.333Z,1.9
2018-02-17T00:48:15.452Z,1.91
2018-02-17T00:48:19.463Z,1.9
2018-02-17T00:48:23.573Z,1.9
2018-02-17T00:48:27.680Z,1.91
2018-02-17T00:48:31.801Z,1.91
2018-02-17T00:48:35.918Z,1.91
2018-02-17T00:48:40.028Z,1.92
2018-02-17T00:48:44.255Z,1.92
2018-02-17T00:48:48.265Z,1.92
2018-02-17T00:48:52.488Z,1.92
2018-02-17T00:48:56.391Z,1.92
2018-02-17T00:49:00.619Z,1.92
2018-02-17T00:49:04.842Z,1.92
2018-02-17T00:49:09.063Z,1.93
2018-02-17T00:49:13.171Z,1.92
2018-02-17T00:49:17.406Z,1.92
2018-02-17T00:49:21.628Z,1.93
2018-02-17T00:49:25.638Z,1.93
2018-02-17T00:49:29.639Z,1.93
2018-02-17T00:49:33.752Z,1.93
2018-02-17T00:49:37.876Z,1.94
2018-02-17T00:49:42.204Z,1.93
2018-02-17T00:49:46.425Z,1.94
2018-02-17T00:49:50.434Z,1.95
2018-02-17T00:49:54.554Z,1.94
2018-02-17T00:49:58.560Z,1.94
2018-02-17T00:50:02.870Z,1.94
2018-02-17T00:50:06.874Z,1.94
2018-02-17T00:50:10.989Z,1.94
2018-02-17T00:50:15.098Z,1.94
2018-02-17T00:50:18.994Z,1.95
2018-02-17T00:50:23.324Z,1.95
2018-02-17T00:50:27.334Z,1.95
2018-02-17T00:50:31.458Z,1.95
2018-02-17T00:50:35.356Z,1.96
2018-02-17T00:50:39.366Z,1.95
2018-02-17T00:50:43.261Z,1.95
2018-02-17T00:50:47.384Z,1.96
2018-02-17T00:50:51.609Z,1.96
2018-02-17T00:50:55.723Z,1.96
2018-02-17T00:50:59.945Z,1.96
2018-02-17T00:51:04.216Z,1.97
2018-02-17T00:51:08.336Z,1.96
2018-02-17T00:51:12.556Z,1.96
2018-02-17T00:51:16.798Z,1.96
2018-02-17T00:51:21.016Z,1.97
2018-02-17T00:51:25.126Z,1.97
2018-02-17T00:51:29.361Z,1.97
2018-02-17T00:51:33.363Z,1.98
2018-02-17T00:51:37.479Z,1.97
2018-02-17T00:51:41.807Z,1.97
2018-02-17T00:51:46.031Z,1.97
2018-02-17T00:51:50.047Z,1.97
2018-02-17T00:51:54.382Z,1.97
2018-02-17T00:51:58.598Z,1.97
2018-02-17T00:52:02.703Z,1.98
2018-02-17T00:52:06.918Z,1.97
2018-02-17T00:52:11.035Z,1.97
2018-02-17T00:52:15.257Z,1.97
2018-02-17T00:52:19.371Z,1.97
2018-02-17T00:52:23.486Z,1.96
2018-02-17T00:52:27.502Z,1.98
2018-02-17T00:52:31.616Z,1.98
2018-02-17T00:52:35.842Z,1.98
2018-02-17T00:52:40.060Z,1.99
2018-02-17T00:52:44.396Z,1.98
2018-02-17T00:52:48.622Z,1.97
2018-02-17T00:52:52.950Z,1.99
2018-02-17T00:52:57.178Z,1.99
2018-02-17T00:53:01.290Z,1.99
2018-02-17T00:53:05.917Z,1.99
2018-02-17T00:53:10.295Z,1.98
2018-02-17T00:53:14.516Z,2
2018-02-17T00:53:18.733Z,1.99
2018-02-17T00:53:22.846Z,1.99
2018-02-17T00:53:26.846Z,1.99
2018-02-17T00:53:31.070Z,1.99
2018-02-17T00:53:35.400Z,1.99
2018-02-17T00:53:39.729Z,1.99
2018-02-17T00:53:43.845Z,2
2018-02-17T00:53:48.074Z,1.99
2018-02-17T00:53:52.188Z,1.99
2018-02-17T00:53:56.311Z,1.99
2018-02-17T00:54:00.534Z,1.99
2018-02-17T00:54:04.542Z,1.99
2018-02-17T00:54:08.882Z,2
2018-02-17T00:54:13.105Z,2
2018-02-17T00:54:17.329Z,2
2018-02-17T00:54:21.404Z,2
2018-02-17T00:54:25.518Z,2
2018-02-17T00:54:29.426Z,1.99
2018-02-17T00:54:33.755Z,2
2018-02-17T00:54:37.980Z,2
2018-02-17T00:54:42.304Z,2
2018-02-17T00:54:46.530Z,2
2018-02-17T00:54:50.754Z,1.99
2018-02-17T00:54:55.089Z,2
2018-02-17T00:54:59.209Z,2
2018-02-17T00:55:03.323Z,2
2018-02-17T00:55:07.444Z,2
2018-02-17T00:55:11.771Z,2.01
2018-02-17T00:55:15.895Z,2
2018-02-17T00:55:20.235Z,2.01
2018-02-17T00:55:24.356Z,1.99
2018-02-17T00:55:28.369Z,2
2018-02-17T00:55:32.591Z,2
2018-02-17T00:55:36.923Z,2.01
2018-02-17T00:55:41.037Z,2
2018-02-17T00:55:45.159Z,2
2018-02-17T00:55:49.384Z,2
2018-02-17T00:55:53.282Z,2
2018-02-17T00:55:57.626Z,2
2018-02-17T00:56:01.850Z,2